Time;durP1;ratioP1;P1;durP2;ratioP2;P2;SDS_P1;SDS_P2;PMS_P1;PMS_P2;Temp;Humidity;BMP_temperature;BMP_pressure;BME280_temperature;BME280_humidity;BME280_pressure;Samples;Min_cycle;Max_cycle;Signal;HPM_P1;HPM_P2
2021/04/11 00:01:19;;;;;;;13.10;8.10;;;;;;;6.59;33.91;100631.91;5012734;28;20049;-65
2021/04/11 00:03:44;;;;;;;11.55;7.55;;;;;;;6.57;33.64;100645.28;5012895;28;20033;-64
2021/04/11 00:06:10;;;;;;;14.80;8.82;;;;;;;6.53;34.83;100629.56;5012806;28;20092;-62
2021/04/11 00:08:36;;;;;;;12.40;8.07;;;;;;;6.51;34.39;100639.38;5012910;28;20065;-64
2021/04/11 00:11:03;;;;;;;14.50;8.20;;;;;;;6.50;35.22;100643.88;5012622;28;20038;-64
2021/04/11 00:13:32;;;;;;;16.20;8.73;;;;;;;6.42;34.79;100641.59;5012726;28;20038;-64
2021/04/11 00:15:58;;;;;;;15.40;8.85;;;;;;;6.44;34.45;100650.34;5012683;28;20120;-63
2021/04/11 00:18:24;;;;;;;15.98;8.80;;;;;;;6.42;34.89;100654.88;5012560;28;20129;-64
2021/04/11 00:20:50;;;;;;;13.65;8.70;;;;;;;6.22;35.10;100620.44;5012515;28;20038;-64
2021/04/11 00:23:16;;;;;;;18.65;8.52;;;;;;;6.06;35.13;100602.59;5012467;28;20584;-64
2021/04/11 00:25:48;;;;;;;15.40;8.80;;;;;;;5.89;35.04;100585.66;5012808;28;20045;-65
2021/04/11 00:28:15;;;;;;;17.30;8.57;;;;;;;6.32;35.08;100651.81;5012394;28;20062;-65
2021/04/11 00:30:41;;;;;;;17.23;9.10;;;;;;;6.30;35.07;100658.16;5012334;28;20049;-65
2021/04/11 00:33:09;;;;;;;14.52;8.57;;;;;;;6.33;35.08;100679.28;5012504;28;20386;-64
2021/04/11 00:35:35;;;;;;;13.68;8.40;;;;;;;6.30;35.04;100672.31;5012890;28;20030;-65
2021/04/11 00:38:01;;;;;;;14.75;8.57;;;;;;;6.10;34.93;100633.41;5012018;28;20387;-67
2021/04/11 00:40:33;;;;;;;13.38;9.40;;;;;;;6.27;35.34;100668.94;5010893;28;20075;-65
2021/04/11 00:43:08;;;;;;;15.38;9.50;;;;;;;6.28;35.05;100668.03;5018632;28;20034;-63
2021/04/11 00:45:54;;;;;;;14.63;9.23;;;;;;;6.30;35.32;100663.50;5032420;28;20176;-65
2021/04/11 00:48:23;;;;;;;17.95;9.80;;;;;;;6.24;35.04;100664.66;5031541;28;20493;-64
2021/04/11 00:50:54;;;;;;;15.07;9.07;;;;;;;6.27;35.55;100674.25;5031726;28;20037;-63
2021/04/11 00:53:20;;;;;;;17.13;10.05;;;;;;;6.20;35.00;100656.88;5031817;28;20041;-67
2021/04/11 00:55:46;;;;;;;15.48;10.02;;;;;;;6.22;35.33;100655.88;5031814;28;20551;-67
2021/04/11 00:58:12;;;;;;;18.40;9.18;;;;;;;6.32;35.14;100666.94;5030983;28;20044;-65
2021/04/11 01:00:37;;;;;;;17.77;10.20;;;;;;;6.36;35.29;100676.47;5031597;28;20041;-66
2021/04/11 01:03:05;;;;;;;16.98;9.93;;;;;;;6.39;35.25;100684.31;5031423;28;20375;-63
2021/04/11 01:05:35;;;;;;;16.75;9.32;;;;;;;6.39;35.45;100684.31;5031444;28;20068;-67
2021/04/11 01:08:10;;;;;;;16.30;9.43;;;;;;;6.43;35.93;100696.50;5031214;28;20033;-67
2021/04/11 01:10:51;;;;;;;15.23;9.40;;;;;;;6.42;35.38;100684.16;5031322;28;20033;-66
2021/04/11 01:13:19;;;;;;;21.05;10.35;;;;;;;6.33;35.21;100679.28;5031376;28;20037;-65
2021/04/11 01:15:45;;;;;;;16.20;10.15;;;;;;;6.43;35.34;100688.53;5030230;28;20029;-66
2021/04/11 01:18:10;;;;;;;17.13;10.32;;;;;;;6.39;34.72;100688.75;5031162;28;20034;-62
2021/04/11 01:20:36;;;;;;;16.75;11.00;;;;;;;6.02;35.30;100631.13;5030994;28;20482;-66
2021/04/11 01:23:20;;;;;;;19.75;10.75;;;;;;;6.45;35.54;100691.97;5031368;28;20098;-67
2021/04/11 01:25:48;;;;;;;20.00;11.48;;;;;;;6.37;35.61;100693.28;5031297;28;20037;-67
2021/04/11 01:28:24;;;;;;;16.42;10.60;;;;;;;6.34;35.83;100674.81;5030534;28;20057;-69
2021/04/11 01:30:54;;;;;;;22.20;10.32;;;;;;;6.42;35.74;100693.94;5031232;28;20052;-67
2021/04/11 01:33:24;;;;;;;19.92;10.95;;;;;;;6.38;35.42;100692.34;5031138;28;20068;-67
2021/04/11 01:35:52;;;;;;;17.88;11.52;;;;;;;6.10;35.54;100654.69;5031116;28;20033;-67
2021/04/11 01:38:18;;;;;;;16.58;10.65;;;;;;;6.31;35.61;100707.75;5030397;28;20029;-67
2021/04/11 01:41:02;;;;;;;21.27;10.85;;;;;;;6.28;35.76;100699.94;5021188;28;20045;-66
2021/04/11 01:43:29;;;;;;;17.73;10.38;;;;;;;6.26;36.16;100704.44;5010689;28;20045;-66
2021/04/11 01:45:55;;;;;;;18.10;9.57;;;;;;;6.12;36.42;100692.69;5011145;28;20037;-66
2021/04/11 01:48:21;;;;;;;17.92;9.63;;;;;;;5.86;36.55;100646.94;5011005;28;20074;-66
2021/04/11 01:50:48;;;;;;;15.38;9.60;;;;;;;6.12;36.38;100711.31;5010913;28;20072;-66
2021/04/11 01:53:16;;;;;;;16.05;9.52;;;;;;;6.06;36.51;100694.78;5010664;28;20021;-65
2021/04/11 01:55:42;;;;;;;20.65;10.18;;;;;;;6.11;36.49;100714.03;5011236;28;20034;-65
2021/04/11 01:58:10;;;;;;;16.48;9.52;;;;;;;6.09;36.51;100719.44;5011092;28;20022;-67
2021/04/11 02:00:41;;;;;;;14.57;9.57;;;;;;;6.08;36.66;100719.50;5010542;28;20509;-66
2021/04/11 02:03:12;;;;;;;14.82;9.00;;;;;;;6.02;36.94;100708.22;5010582;28;20087;-65
2021/04/11 02:05:39;;;;;;;17.80;10.07;;;;;;;6.06;36.43;100716.03;5010778;28;20034;-66
2021/04/11 02:08:07;;;;;;;14.77;9.40;;;;;;;6.04;36.64;100705.50;5010840;28;20102;-67
2021/04/11 02:10:35;;;;;;;15.50;9.95;;;;;;;6.08;36.47;100709.72;5009733;28;20033;-66
2021/04/11 02:13:01;;;;;;;17.27;9.65;;;;;;;6.01;36.36;100701.19;5011197;28;20026;-67
2021/04/11 02:15:33;;;;;;;16.20;9.73;;;;;;;6.13;36.64;100709.50;5010513;28;20037;-68
2021/04/11 02:17:58;;;;;;;17.48;9.93;;;;;;;6.15;36.55;100729.78;5010480;28;20030;-67
2021/04/11 02:20:25;;;;;;;17.08;9.00;;;;;;;6.11;36.85;100711.38;5010502;28;20038;-67
2021/04/11 02:22:53;;;;;;;15.50;9.57;;;;;;;6.13;36.36;100714.81;5010729;28;20091;-67
2021/04/11 02:25:26;;;;;;;14.40;9.13;;;;;;;6.10;37.24;100705.19;5010623;28;20047;-66
2021/04/11 02:27:55;;;;;;;15.65;9.50;;;;;;;6.11;36.78;100712.25;5010593;28;20060;-67
2021/04/11 02:30:23;;;;;;;17.08;10.07;;;;;;;5.83;36.74;100681.63;5010664;28;20049;-67
2021/04/11 02:32:49;;;;;;;13.55;9.00;;;;;;;6.17;36.41;100730.56;5010785;28;20412;-66
2021/04/11 02:35:20;;;;;;;16.75;10.18;;;;;;;6.13;36.85;100728.09;5009186;28;20045;-65
2021/04/11 02:37:50;;;;;;;21.50;10.18;;;;;;;6.14;37.25;100722.72;5010740;28;20030;-66
2021/04/11 02:40:22;;;;;;;18.00;10.50;;;;;;;6.23;36.57;100752.47;5009747;28;20129;-64
2021/04/11 02:42:48;;;;;;;15.95;10.05;;;;;;;6.22;36.26;100745.41;5008939;28;20065;-67
2021/04/11 02:45:21;;;;;;;19.55;10.32;;;;;;;6.21;36.61;100735.72;5010587;28;20520;-67
2021/04/11 02:47:46;;;;;;;18.80;11.32;;;;;;;6.14;36.53;100733.38;5010392;28;20088;-66
2021/04/11 02:50:13;;;;;;;18.48;10.00;;;;;;;6.22;36.74;100753.41;5010854;28;20037;-68
2021/04/11 02:52:45;;;;;;;18.25;10.95;;;;;;;6.26;37.09;100741.69;5010586;28;20443;-68
2021/04/11 02:55:13;;;;;;;16.70;11.18;;;;;;;6.30;36.71;100748.59;5010430;28;20033;-68
2021/04/11 02:57:38;;;;;;;16.40;10.65;;;;;;;6.23;37.06;100731.19;5010265;28;20124;-67
2021/04/11 03:00:18;;;;;;;21.77;11.18;;;;;;;6.29;37.17;100723.78;5010182;28;20091;-64
2021/04/11 03:02:45;;;;;;;21.88;11.52;;;;;;;6.44;36.41;100762.06;5010431;28;20034;-65
2021/04/11 03:05:12;;;;;;;19.63;11.25;;;;;;;6.49;36.36;100755.66;5009808;28;20052;-66
2021/04/11 03:07:44;;;;;;;23.02;11.85;;;;;;;6.35;36.79;100722.63;5010308;28;20065;-67
2021/04/11 03:10:16;;;;;;;25.20;10.88;;;;;;;6.51;36.58;100743.16;5010307;28;20046;-66
2021/04/11 03:12:42;;;;;;;15.75;10.05;;;;;;;6.65;36.36;100756.66;5010176;28;20034;-66
2021/04/11 03:15:08;;;;;;;20.60;10.20;;;;;;;6.74;36.22;100758.00;5009784;28;20521;-66
2021/04/11 03:17:34;;;;;;;19.52;11.07;;;;;;;6.84;36.04;100758.41;5010008;28;20536;-67
2021/04/11 03:20:12;;;;;;;17.10;10.15;;;;;;;6.96;36.35;100754.25;5010152;28;20046;-66
2021/04/11 03:22:38;;;;;;;16.35;9.52;;;;;;;7.14;35.46;100763.09;5013557;28;20033;-67
2021/04/11 03:25:05;;;;;;;14.70;10.20;;;;;;;7.38;35.10;100760.13;5012079;28;20044;-67
2021/04/11 03:27:51;;;;;;;18.27;10.05;;;;;;;7.48;34.26;100692.09;5013590;28;20084;-66
2021/04/11 03:30:23;;;;;;;16.73;10.45;;;;;;;8.52;33.29;100768.25;5013789;28;20053;-66
2021/04/11 03:32:53;;;;;;;15.07;9.82;;;;;;;9.55;31.61;100771.97;5013334;28;20061;-67
2021/04/11 03:35:23;;;;;;;15.73;10.13;;;;;;;10.46;30.03;100753.84;5013216;28;20033;-66
2021/04/11 03:37:52;;;;;;;16.58;10.35;;;;;;;11.28;28.60;100756.44;5012919;28;20073;-64
2021/04/11 03:40:22;;;;;;;17.92;10.30;;;;;;;12.22;27.49;100768.75;5012075;28;20120;-66
2021/04/11 03:42:51;;;;;;;18.88;10.00;;;;;;;12.57;26.54;100715.13;5011316;28;20046;-66
2021/04/11 03:45:18;;;;;;;19.08;10.07;;;;;;;13.61;25.63;100777.19;5012070;28;20117;-66
2021/04/11 03:48:00;;;;;;;19.35;10.50;;;;;;;14.31;24.48;100765.44;5012869;28;20100;-68
2021/04/11 03:50:30;;;;;;;18.10;10.50;;;;;;;14.97;23.53;100767.22;5012573;28;20096;-66
2021/04/11 03:53:21;;;;;;;16.20;10.20;;;;;;;15.73;22.75;100774.25;4995188;28;20034;-64
2021/04/11 03:55:48;;;;;;;16.58;10.75;;;;;;;16.41;21.71;100777.38;5013191;28;20053;-64
2021/04/11 03:58:21;;;;;;;17.35;10.70;;;;;;;17.00;20.82;100781.03;5012847;28;20030;-65
2021/04/11 04:00:55;;;;;;;17.08;10.20;;;;;;;17.55;19.81;100792.25;5013275;28;20486;-66
2021/04/11 04:03:25;;;;;;;17.83;10.52;;;;;;;18.04;19.74;100767.72;5012589;28;20084;-64
2021/04/11 04:05:52;;;;;;;12.85;10.07;;;;;;;18.58;19.09;100778.69;5012629;28;20041;-63
2021/04/11 04:08:18;;;;;;;16.27;10.20;;;;;;;19.08;18.88;100788.19;5012703;28;20030;-66
2021/04/11 04:10:58;;;;;;;17.25;11.18;;;;;;;19.59;17.86;100787.56;5012917;28;20036;-66
2021/04/11 04:13:35;;;;;;;15.68;10.82;;;;;;;19.96;17.36;100792.88;5012385;28;20116;-66
2021/04/11 04:16:16;;;;;;;16.35;10.50;;;;;;;20.48;17.48;100784.59;5010587;28;20383;-68
2021/04/11 04:19:24;;;;;;;15.57;10.18;;;;;;;21.13;16.18;100800.41;5009482;28;20044;-68
2021/04/11 04:22:09;;;;;;;18.90;10.88;;;;;;;21.53;15.66;100806.84;5012704;28;20048;-69
2021/04/11 04:24:41;;;;;;;20.98;10.95;;;;;;;21.90;15.50;100807.34;5012320;28;20045;-69
2021/04/11 04:27:38;;;;;;;18.17;11.23;;;;;;;22.37;15.40;100813.78;5012523;28;20095;-68
2021/04/11 04:30:26;;;;;;;15.15;11.35;;;;;;;22.92;14.77;100816.63;5011973;28;20046;-67
2021/04/11 04:33:16;;;;;;;20.70;11.52;;;;;;;23.22;14.74;100817.56;5011034;28;20442;-62
2021/04/11 04:35:52;;;;;;;16.25;11.70;;;;;;;23.47;13.69;100830.22;5012382;28;20528;-69
2021/04/11 04:38:24;;;;;;;16.02;11.60;;;;;;;23.97;13.55;100826.97;5012195;28;20120;-67
2021/04/11 04:41:03;;;;;;;16.80;11.27;;;;;;;24.31;13.17;100828.31;5011228;28;20029;-69
2021/04/11 04:44:22;;;;;;;19.15;11.30;;;;;;;25.04;12.14;100836.56;5011809;28;20123;-66
2021/04/11 04:47:06;;;;;;;17.02;11.20;;;;;;;25.74;12.46;100835.09;5049727;28;20033;-69
2021/04/11 04:49:43;;;;;;;14.50;11.88;;;;;;;26.43;11.15;100838.91;5047115;28;20045;-70
2021/04/11 04:52:18;;;;;;;15.57;11.95;;;;;;;26.86;11.18;100847.97;5012818;28;20054;-67
2021/04/11 04:54:54;;;;;;;15.00;11.43;;;;;;;27.35;10.38;100848.66;5011928;28;20486;-69
2021/04/11 04:57:28;;;;;;;;;;;;;;;28.98;9.39;100853.63;5012530;28;20034;-71
2021/04/11 05:00:09;;;;;;;15.98;12.10;;;;;;;28.43;10.28;100846.66;5011714;28;20015;-67
2021/04/11 05:03:07;;;;;;;16.80;11.13;;;;;;;28.18;10.06;100843.78;5012088;28;20406;-68
2021/04/11 05:05:39;;;;;;;16.55;11.40;;;;;;;28.22;9.91;100842.28;5017759;28;20073;-69
2021/04/11 05:08:08;;;;;;;16.40;11.70;;;;;;;28.52;9.63;100847.25;5011746;28;20034;-68
2021/04/11 05:10:38;;;;;;;17.55;12.13;;;;;;;28.70;9.68;100835.53;5011214;28;20054;-68
2021/04/11 05:13:25;;;;;;;18.33;11.48;;;;;;;29.50;9.20;100855.41;5011599;28;20172;-69
2021/04/11 05:15:57;;;;;;;17.80;11.18;;;;;;;29.82;8.79;100849.81;5011636;28;20038;-68
2021/04/11 05:18:32;;;;;;;13.18;11.00;;;;;;;30.45;8.27;100861.69;5011323;28;20140;-69
2021/04/11 05:21:01;;;;;;;13.95;11.32;;;;;;;31.01;7.72;100856.06;5010997;28;20099;-69
2021/04/11 05:23:27;;;;;;;14.73;11.23;;;;;;;31.50;7.93;100855.97;5011218;28;20053;-69
2021/04/11 05:26:17;;;;;;;12.75;10.82;;;;;;;32.39;7.48;100831.16;5011750;28;20535;-69
2021/04/11 05:29:09;;;;;;;19.92;11.20;;;;;;;33.24;7.34;100857.44;5011336;28;20049;-68
2021/04/11 05:31:37;;;;;;;14.55;10.75;;;;;;;33.17;7.18;100865.91;5011058;28;20042;-70
2021/04/11 05:34:07;;;;;;;14.52;10.60;;;;;;;33.33;6.84;100855.91;5011054;28;20038;-69
2021/04/11 05:36:44;;;;;;;14.27;10.73;;;;;;;33.79;6.79;100861.41;5010083;28;20030;-69
2021/04/11 05:39:17;;;;;;;13.77;10.75;;;;;;;34.07;6.23;100845.72;5009767;28;20026;-67
2021/04/11 05:42:02;;;;;;;18.77;10.48;;;;;;;34.92;6.13;100861.19;5009855;28;20037;-70
2021/04/11 05:44:41;;;;;;;12.80;10.57;;;;;;;35.51;5.61;100873.50;5003246;28;20091;-65
2021/04/11 05:47:36;;;;;;;13.50;10.68;;;;;;;36.09;4.92;100867.19;5010574;28;20504;-69
2021/04/11 05:50:16;;;;;;;15.02;10.43;;;;;;;36.38;5.16;100869.56;5027231;28;20418;-67
2021/04/11 05:52:53;;;;;;;13.65;10.88;;;;;;;36.63;4.49;100870.78;5010619;28;20493;-70
2021/04/11 05:55:21;;;;;;;14.25;10.60;;;;;;;36.77;4.86;100871.97;5010679;28;20042;-70
2021/04/11 05:57:54;;;;;;;14.90;11.88;;;;;;;37.08;4.32;100871.22;5010762;28;20029;-70
2021/04/11 06:00:30;;;;;;;16.50;11.50;;;;;;;37.51;4.79;100873.75;5010750;28;20125;-70
2021/04/11 06:03:03;;;;;;;13.27;11.00;;;;;;;37.83;4.15;100867.00;5011024;28;20041;-68
2021/04/11 06:06:00;;;;;;;17.92;10.38;;;;;;;38.42;4.07;100869.34;5010745;28;20061;-64
2021/04/11 06:08:28;;;;;;;13.52;10.70;;;;;;;38.96;3.59;100875.28;5010483;28;20068;-69
2021/04/11 06:11:02;;;;;;;19.52;11.13;;;;;;;39.28;3.18;100880.34;5010845;28;20069;-71
2021/04/11 06:13:47;;;;;;;12.48;10.68;;;;;;;40.11;2.87;100871.19;5010833;28;20045;-68
2021/04/11 06:16:19;;;;;;;15.35;12.00;;;;;;;40.36;2.54;100873.97;5010471;28;20128;-71
2021/04/11 06:18:47;;;;;;;15.30;11.25;;;;;;;40.39;3.02;100877.03;5010652;28;20076;-70
2021/04/11 06:21:24;;;;;;;12.35;11.13;;;;;;;40.27;3.24;100876.59;5009907;28;20092;-67
2021/04/11 06:24:01;;;;;;;13.80;11.63;;;;;;;40.01;3.27;100891.75;5009328;28;20520;-70
2021/04/11 06:26:35;;;;;;;14.45;11.40;;;;;;;39.80;3.29;100895.88;5010400;28;20061;-71
2021/04/11 06:29:10;;;;;;;16.80;11.45;;;;;;;40.03;3.32;100902.66;5010787;28;20487;-73
2021/04/11 06:31:48;;;;;;;14.98;11.77;;;;;;;40.38;3.18;100906.22;5010748;28;20100;-70
2021/04/11 06:34:22;;;;;;;15.48;11.55;;;;;;;40.14;3.38;100907.03;5008900;28;20038;-70
2021/04/11 06:36:51;;;;;;;16.13;11.02;;;;;;;40.44;2.69;100905.00;5010451;28;20120;-69
2021/04/11 06:39:20;;;;;;;15.18;12.05;;;;;;;40.83;2.93;100899.47;5010295;28;20038;-68
2021/04/11 06:42:08;;;;;;;15.10;10.98;;;;;;;41.18;2.41;100905.69;5007709;28;20453;-71
2021/04/11 06:45:01;;;;;;;20.88;12.38;;;;;;;41.99;2.34;100912.19;5006777;28;20045;-71
2021/04/11 06:48:04;;;;;;;17.20;12.40;;;;;;;42.30;2.57;100905.97;5004895;28;20033;-62
2021/04/11 06:50:58;;;;;;;16.15;11.55;;;;;;;42.89;2.42;100917.38;5009458;28;20033;-65
2021/04/11 06:53:41;;;;;;;16.63;12.18;;;;;;;43.06;2.18;100924.34;5005104;28;20084;-66
2021/04/11 06:56:23;;;;;;;16.00;12.77;;;;;;;42.65;2.05;100919.59;5010570;28;20462;-65
2021/04/11 06:59:21;;;;;;;16.08;12.48;;;;;;;43.99;2.27;100929.63;5013573;28;20098;-66
2021/04/11 07:02:08;;;;;;;14.32;12.25;;;;;;;43.39;1.74;100935.38;5031381;28;20052;-69
2021/04/11 07:05:11;;;;;;;15.40;12.18;;;;;;;43.74;1.76;100924.34;5007273;28;20095;-67
2021/04/11 07:08:14;;;;;;;15.15;12.20;;;;;;;43.80;1.80;100932.69;5005795;28;20144;-63
2021/04/11 07:11:27;;;;;;;20.33;12.75;;;;;;;43.97;2.15;100923.47;5013591;28;20038;-72
2021/04/11 07:14:30;;;;;;;13.63;12.05;;;;;;;43.79;1.85;100931.03;5050639;28;20203;-64
2021/04/11 07:17:18;;;;;;;17.65;12.75;;;;;;;43.49;1.56;100925.84;5012507;28;20404;-69
2021/04/11 07:20:02;;;;;;;15.48;12.38;;;;;;;43.46;1.79;100932.13;5013452;28;20042;-70
2021/04/11 07:22:48;;;;;;;16.90;12.50;;;;;;;43.51;1.81;100931.97;5013447;28;20068;-73
2021/04/11 07:25:37;;;;;;;17.02;12.40;;;;;;;43.80;1.91;100933.50;5013582;28;20248;-72
2021/04/11 07:28:18;;;;;;;17.60;12.00;;;;;;;43.72;1.48;100925.84;5016934;28;20049;-70
2021/04/11 07:31:06;;;;;;;14.27;11.65;;;;;;;44.22;1.61;100940.84;5012624;28;20046;-72
2021/04/11 07:34:13;;;;;;;15.95;11.80;;;;;;;44.78;1.83;100943.16;5017661;28;20064;-71
2021/04/11 07:36:53;;;;;;;13.77;11.93;;;;;;;44.37;1.72;100943.22;5050508;28;20060;-73
2021/04/11 07:39:44;;;;;;;13.68;11.68;;;;;;;44.55;1.72;100946.13;5033998;28;20044;-73
2021/04/11 07:42:22;;;;;;;14.70;11.75;;;;;;;43.89;1.77;100936.38;5021292;28;20054;-71
2021/04/11 07:44:59;;;;;;;17.33;12.30;;;;;;;43.85;1.62;100953.09;5005469;28;20037;-74
2021/04/11 07:47:49;;;;;;;13.30;11.88;;;;;;;43.43;1.92;100952.50;5005689;28;20041;-68
2021/04/11 07:50:24;;;;;;;15.98;11.52;;;;;;;42.67;1.91;100953.91;5011559;28;20103;-73
2021/04/11 07:53:14;;;;;;;15.13;11.75;;;;;;;43.20;2.13;100944.00;4995740;28;20506;-74
2021/04/11 07:55:52;;;;;;;12.57;11.23;;;;;;;42.23;2.15;100945.78;5010981;28;20034;-63
2021/04/11 07:58:39;;;;;;;16.10;10.93;;;;;;;41.75;2.23;100953.38;5011187;28;20037;-67
2021/04/11 08:01:29;;;;;;;17.35;11.43;;;;;;;40.96;2.68;100957.66;5012505;28;20536;-67
2021/04/11 08:04:25;;;;;;;15.60;12.35;;;;;;;40.15;2.77;100961.97;5012516;28;20034;-68
2021/04/11 08:07:29;;;;;;;15.00;11.63;;;;;;;37.66;4.09;100967.06;5013052;28;20034;-67
2021/04/11 08:10:03;;;;;;;16.35;11.95;;;;;;;34.44;5.54;100958.22;5012463;28;20038;-66
2021/04/11 08:12:58;;;;;;;14.47;11.30;;;;;;;32.01;6.87;100965.44;5012448;28;20096;-66
2021/04/11 08:15:32;;;;;;;16.38;11.93;;;;;;;29.00;8.10;100933.34;5012493;28;20288;-65
2021/04/11 08:18:20;;;;;;;16.73;12.65;;;;;;;27.06;9.47;100927.69;5012535;28;20085;-66
2021/04/11 08:20:57;;;;;;;18.88;11.85;;;;;;;25.58;10.85;100968.72;5012406;28;20083;-65
2021/04/11 08:23:47;;;;;;;21.95;11.75;;;;;;;24.51;11.56;100968.19;5012211;28;20149;-64
2021/04/11 08:26:15;;;;;;;17.90;12.00;;;;;;;23.46;12.14;100968.72;5012313;28;20046;-67
2021/04/11 08:28:59;;;;;;;18.13;11.75;;;;;;;22.65;12.96;100958.88;5012386;28;20060;-67
2021/04/11 08:31:49;;;;;;;16.85;11.80;;;;;;;22.14;13.49;100978.22;5011600;28;20552;-69
2021/04/11 08:34:55;;;;;;;21.13;11.30;;;;;;;21.79;13.50;100966.66;5011968;28;20046;-68
2021/04/11 08:37:59;;;;;;;25.70;12.35;;;;;;;21.44;13.76;100971.31;5024906;28;20402;-67
2021/04/11 08:41:15;;;;;;;18.95;11.80;;;;;;;21.11;14.35;100968.53;5024795;28;20042;-67
2021/04/11 08:44:18;;;;;;;20.02;12.73;;;;;;;20.93;14.93;100972.19;5031998;28;20524;-63
2021/04/11 08:47:21;;;;;;;19.33;12.45;;;;;;;20.68;14.99;100974.78;5009547;28;20037;-67
2021/04/11 08:49:52;;;;;;;19.80;13.27;;;;;;;20.35;15.26;100967.28;5008485;28;20033;-66
2021/04/11 08:52:27;;;;;;;20.52;12.57;;;;;;;20.11;15.39;100954.41;5011193;28;20030;-67
2021/04/11 08:55:00;;;;;;;;;;;;;;;20.33;15.45;100969.31;5011612;28;20037;-66
2021/04/11 08:57:50;;;;;;;24.80;14.00;;;;;;;20.12;15.58;100966.09;5011460;28;20296;-67
2021/04/11 09:00:37;;;;;;;30.10;18.08;;;;;;;20.06;16.00;100967.63;5011059;28;20037;-66
2021/04/11 09:03:21;;;;;;;20.60;11.90;;;;;;;20.13;15.97;100963.25;5005417;28;20030;-66
2021/04/11 09:06:18;;;;;;;18.45;10.57;;;;;;;20.15;15.88;100968.53;5006775;28;20034;-68
2021/04/11 09:09:07;;;;;;;13.65;9.20;;;;;;;19.99;16.18;100971.94;5012383;28;20042;-68
2021/04/11 09:11:49;;;;;;;13.32;9.10;;;;;;;19.89;16.10;100962.00;5008967;28;20120;-67
2021/04/11 09:14:29;;;;;;;12.52;9.27;;;;;;;19.84;16.36;100969.78;5009484;28;20037;-68
2021/04/11 09:17:11;;;;;;;15.55;9.00;;;;;;;19.75;16.22;100963.41;5010080;28;20045;-71
2021/04/11 09:19:52;;;;;;;13.70;9.02;;;;;;;19.79;16.46;100961.25;5009044;28;20040;-66
2021/04/11 09:22:35;;;;;;;14.32;8.23;;;;;;;19.87;16.18;100966.75;5004327;28;20033;-68
2021/04/11 09:25:18;;;;;;;11.65;7.97;;;;;;;19.72;16.38;100962.88;5001639;28;20464;-68
2021/04/11 09:28:15;;;;;;;11.55;7.85;;;;;;;19.75;16.43;100968.00;5010051;28;20045;-70
2021/04/11 09:31:13;;;;;;;14.35;8.18;;;;;;;19.69;16.62;100950.47;5016372;28;20050;-71
2021/04/11 09:33:45;;;;;;;14.13;7.68;;;;;;;19.65;16.56;100959.91;5024767;28;20050;-68
2021/04/11 09:36:24;;;;;;;17.02;7.95;;;;;;;19.32;16.79;100910.72;5010748;28;20488;-69
2021/04/11 09:39:07;;;;;;;15.15;7.85;;;;;;;19.57;16.77;100955.28;4990950;28;20034;-66
2021/04/11 09:41:39;;;;;;;12.50;7.70;;;;;;;19.52;16.99;100960.31;5003606;28;20516;-68
2021/04/11 09:44:23;;;;;;;13.52;7.88;;;;;;;19.56;16.90;100967.16;5010528;28;20072;-67
2021/04/11 09:47:10;;;;;;;15.10;8.23;;;;;;;19.45;17.00;100978.22;5010549;28;20141;-70
2021/04/11 09:50:05;;;;;;;13.80;7.90;;;;;;;19.40;17.16;100969.69;5010663;28;20553;-69
2021/04/11 09:52:49;;;;;;;13.95;8.10;;;;;;;19.29;17.22;100970.78;5010437;28;20045;-68
2021/04/11 09:55:20;;;;;;;13.05;8.05;;;;;;;19.33;17.19;100975.75;5010850;28;20033;-69
2021/04/11 09:58:29;;;;;;;12.15;7.93;;;;;;;19.47;17.25;100970.78;5007204;28;20041;-67
2021/04/11 10:01:09;;;;;;;12.65;7.15;;;;;;;19.44;17.04;100971.97;5009851;28;20251;-68
2021/04/11 10:03:46;;;;;;;10.35;6.88;;;;;;;19.22;17.44;100944.25;5010247;28;20521;-67
2021/04/11 10:06:53;;;;;;;13.50;7.45;;;;;;;19.46;17.18;100974.50;5010044;28;20712;-67
2021/04/11 10:09:34;;;;;;;11.23;7.45;;;;;;;19.48;16.90;100975.22;5009744;28;20129;-68
2021/04/11 10:12:36;;;;;;;13.45;7.65;;;;;;;19.54;17.01;100974.63;5010188;28;20041;-67
2021/04/11 10:15:29;;;;;;;14.57;7.30;;;;;;;19.52;17.24;100971.16;5010270;28;20490;-69
2021/04/11 10:18:25;;;;;;;14.02;7.63;;;;;;;19.59;17.17;100975.00;5010361;28;20465;-69
2021/04/11 10:21:09;;;;;;;11.13;7.05;;;;;;;19.65;16.84;100973.50;5010963;28;20040;-65
2021/04/11 10:23:43;;;;;;;10.13;7.22;;;;;;;19.61;17.13;100964.81;5010613;28;20071;-64
2021/04/11 10:26:26;;;;;;;11.07;7.30;;;;;;;19.79;16.79;100961.25;5009001;28;20029;-64
2021/04/11 10:29:03;;;;;;;9.23;6.60;;;;;;;20.02;16.68;100982.53;5010232;28;20434;-66
2021/04/11 10:31:33;;;;;;;11.43;7.32;;;;;;;20.02;16.57;100982.53;5011354;28;20038;-65
2021/04/11 10:34:12;;;;;;;10.65;7.20;;;;;;;20.02;16.43;100987.97;5014457;28;20029;-66
2021/04/11 10:37:01;;;;;;;10.65;6.72;;;;;;;19.91;16.54;100970.88;5014584;28;20119;-65
2021/04/11 10:40:06;;;;;;;11.25;6.78;;;;;;;20.08;16.56;100976.47;5014095;28;20381;-65
2021/04/11 10:42:48;;;;;;;12.07;7.25;;;;;;;20.10;16.72;100976.28;5016674;28;20046;-66
2021/04/11 10:45:37;;;;;;;12.00;7.45;;;;;;;20.18;16.68;100982.63;5014101;28;20096;-66
2021/04/11 10:48:21;;;;;;;14.82;7.68;;;;;;;20.20;16.71;100980.63;5014114;28;20038;-64
2021/04/11 10:51:06;;;;;;;12.07;7.60;;;;;;;20.17;16.79;100986.38;5013841;28;20057;-69
2021/04/11 10:53:44;;;;;;;10.73;7.70;;;;;;;20.23;16.68;100976.72;5013839;28;20405;-65
2021/04/11 10:56:41;;;;;;;14.23;8.35;;;;;;;20.26;16.66;100981.00;5010619;28;20513;-66
2021/04/11 10:59:07;;;;;;;12.10;7.38;;;;;;;20.29;16.60;100969.81;5004728;28;20076;-65
2021/04/11 11:01:54;;;;;;;10.18;6.93;;;;;;;20.39;16.67;100980.59;5011354;28;20061;-67
2021/04/11 11:04:22;;;;;;;13.77;7.45;;;;;;;20.34;16.79;100984.63;5005211;28;20044;-69
2021/04/11 11:07:22;;;;;;;13.23;8.63;;;;;;;20.34;16.78;100984.63;5013557;28;20092;-64
2021/04/11 11:10:04;;;;;;;10.15;7.32;;;;;;;20.11;16.69;100970.69;5012853;28;20044;-69
2021/04/11 11:12:48;;;;;;;12.63;7.85;;;;;;;20.14;16.72;100975.81;5013209;28;20507;-62
2021/04/11 11:15:32;;;;;;;11.52;7.47;;;;;;;20.00;16.99;100973.66;5012734;28;20038;-64
2021/04/11 11:17:57;;;;;;;16.85;7.85;;;;;;;20.04;16.85;100984.06;5013032;28;20052;-66
2021/04/11 11:20:37;;;;;;;15.52;7.90;;;;;;;19.94;17.25;100972.44;5012844;28;20489;-69
2021/04/11 11:23:20;;;;;;;12.07;7.97;;;;;;;19.91;17.26;100980.91;5013091;28;20095;-66
2021/04/11 11:25:52;;;;;;;13.65;7.60;;;;;;;19.91;17.29;100979.03;5012714;28;20037;-68
2021/04/11 11:28:24;;;;;;;16.85;7.60;;;;;;;19.90;17.49;100976.47;5012607;28;20096;-65
2021/04/11 11:31:07;;;;;;;11.88;7.32;;;;;;;19.86;17.30;100980.47;5012626;28;20445;-68
2021/04/11 11:33:44;;;;;;;11.07;7.55;;;;;;;19.84;17.28;100977.94;5012556;28;20088;-65
2021/04/11 11:36:26;;;;;;;11.93;7.60;;;;;;;19.76;17.41;100972.41;4998159;28;20021;-65
2021/04/11 11:39:49;;;;;;;10.98;7.15;;;;;;;19.70;17.33;100960.31;5012149;28;20057;-67
2021/04/11 11:42:21;;;;;;;12.68;7.80;;;;;;;19.77;17.44;100984.97;5028004;28;20194;-65
2021/04/11 11:45:02;;;;;;;10.13;7.50;;;;;;;19.73;17.45;100992.63;5007787;28;20121;-68
2021/04/11 11:47:31;;;;;;;12.05;7.35;;;;;;;19.70;17.41;100983.91;5012998;28;20410;-63
2021/04/11 11:50:08;;;;;;;12.55;7.57;;;;;;;19.70;17.50;100987.50;5008886;28;20025;-66
2021/04/11 11:52:48;;;;;;;12.45;8.27;;;;;;;19.35;17.39;100924.00;5009354;28;20046;-65
2021/04/11 11:55:27;;;;;;;14.25;8.02;;;;;;;19.60;17.50;100974.00;5011751;28;20049;-67
2021/04/11 11:58:08;;;;;;;14.15;8.20;;;;;;;19.70;17.63;100983.91;5011938;28;20052;-67
2021/04/11 12:00:45;;;;;;;10.93;7.47;;;;;;;19.33;17.87;100907.88;5010347;28;20041;-62
2021/04/11 12:03:34;;;;;;;9.40;7.35;;;;;;;19.85;17.50;100986.94;5007779;28;20121;-70
2021/04/11 12:06:32;;;;;;;10.60;7.93;;;;;;;19.84;17.36;100983.38;4991068;28;20038;-70
2021/04/11 12:09:07;;;;;;;13.82;8.20;;;;;;;19.70;17.77;100981.19;4992100;28;20524;-70